Time,TemperatureF,DewpointF,PressureIn,WindDirection,WindDirectionDegrees,WindSpeedMPH,WindSpeedGustMPH,Humidity,HourlyPrecipIn,Conditions,Clouds,dailyrainin,SolarRadiationWatts/m^2,SoftwareType,DateUTC
2013-03-21 00:22:00,56.0,50.0,29.93,WSW,245,2.0,7.0,80,0.00,,,0.00,0.000000,,2013-03-21 07:22:00,
2013-03-21 00:32:00,56.0,50.0,29.93,WSW,245,2.0,7.0,80,0.00,,,0.00,0.000000,,2013-03-21 07:32:00,
2013-03-21 00:42:00,56.0,50.0,29.93,WSW,245,2.0,7.0,80,0.00,,,0.00,0.000000,,2013-03-21 07:42:00,
2013-03-21 00:52:00,56.0,50.0,29.93,WSW,245,2.0,7.0,80,0.00,,,0.00,0.000000,,2013-03-21 07:52:00,
2013-03-21 01:22:00,55.0,48.0,29.91,NW,307,3.0,10.0,77,0.00,,,0.00,0.000000,,2013-03-21 08:22:00,
2013-03-21 01:33:00,55.0,48.0,29.91,NW,307,3.0,10.0,77,0.00,,,0.00,0.000000,,2013-03-21 08:33:00,
2013-03-21 01:42:00,55.0,48.0,29.91,NW,307,3.0,10.0,77,0.00,,,0.00,0.000000,,2013-03-21 08:42:00,
2013-03-21 01:52:00,55.0,48.0,29.91,NW,307,3.0,10.0,77,0.00,,,0.00,0.000000,,2013-03-21 08:52:00,
2013-03-21 02:21:00,53.0,47.0,29.90,NNE,14,5.0,7.0,81,0.00,,,0.00,0.000000,,2013-03-21 09:21:00,
2013-03-21 02:33:00,53.0,47.0,29.90,NNE,14,5.0,7.0,81,0.00,,,0.00,0.000000,,2013-03-21 09:33:00,
2013-03-21 02:43:00,53.0,47.0,29.90,NNE,14,5.0,7.0,81,0.00,,,0.00,0.000000,,2013-03-21 09:43:00,
2013-03-21 02:53:00,53.0,47.0,29.90,NNE,14,5.0,7.0,81,0.00,,,0.00,0.000000,,2013-03-21 09:53:00,
2013-03-21 03:22:00,53.0,48.0,29.90,North,0,2.0,8.0,83,0.00,,,0.00,0.000000,,2013-03-21 10:22:00,
2013-03-21 03:33:00,53.0,48.0,29.90,North,0,2.0,8.0,83,0.00,,,0.00,0.000000,,2013-03-21 10:33:00,
2013-03-21 03:42:00,53.0,48.0,29.90,North,0,2.0,8.0,83,0.00,,,0.00,0.000000,,2013-03-21 10:42:00,
2013-03-21 03:52:00,53.0,48.0,29.90,North,0,2.0,8.0,83,0.00,,,0.00,0.000000,,2013-03-21 10:52:00,
2013-03-21 04:22:00,51.0,46.0,29.88,NNE,16,5.0,11.0,84,0.00,,,0.00,0.000000,,2013-03-21 11:22:00,
2013-03-21 04:33:00,51.0,46.0,29.88,NNE,16,5.0,11.0,84,0.00,,,0.00,0.000000,,2013-03-21 11:33:00,
2013-03-21 04:42:00,51.0,46.0,29.88,NNE,16,5.0,11.0,84,0.00,,,0.00,0.000000,,2013-03-21 11:42:00,
2013-03-21 04:52:00,51.0,46.0,29.88,NNE,16,5.0,11.0,84,0.00,,,0.00,0.000000,,2013-03-21 11:52:00,
2013-03-21 05:22:00,52.0,47.0,29.88,North,6,5.0,10.0,83,0.00,,,0.00,0.000000,,2013-03-21 12:22:00,
2013-03-21 05:32:00,52.0,47.0,29.88,North,6,5.0,10.0,83,0.00,,,0.00,0.000000,,2013-03-21 12:32:00,
2013-03-21 05:42:00,52.0,47.0,29.88,North,6,5.0,10.0,83,0.00,,,0.00,0.000000,,2013-03-21 12:42:00,
2013-03-21 05:52:00,52.0,47.0,29.88,North,6,5.0,10.0,83,0.00,,,0.00,0.000000,,2013-03-21 12:52:00,
2013-03-21 06:22:00,51.0,48.0,29.87,North,3,6.0,8.0,89,0.00,,,0.00,0.000000,,2013-03-21 13:22:00,
2013-03-21 06:32:00,51.0,48.0,29.87,North,3,6.0,8.0,89,0.00,,,0.00,0.000000,,2013-03-21 13:32:00,
2013-03-21 06:42:00,51.0,48.0,29.87,North,3,6.0,8.0,89,0.00,,,0.00,0.000000,,2013-03-21 13:42:00,
2013-03-21 06:52:00,51.0,48.0,29.87,North,3,6.0,8.0,89,0.00,,,0.00,0.000000,,2013-03-21 13:52:00,
2013-03-21 07:21:00,52.0,49.0,29.87,North,4,6.0,12.0,89,0.00,,,0.00,0.000000,,2013-03-21 14:21:00,
2013-03-21 07:32:00,52.0,49.0,29.87,North,4,6.0,12.0,89,0.00,,,0.00,0.000000,,2013-03-21 14:32:00,
2013-03-21 07:42:00,52.0,49.0,29.87,North,4,6.0,12.0,89,0.00,,,0.00,0.000000,,2013-03-21 14:42:00,
2013-03-21 07:51:00,52.0,49.0,29.87,North,4,6.0,12.0,89,0.00,,,0.00,0.000000,,2013-03-21 14:51:00,
2013-03-21 08:22:00,57.0,50.0,29.88,North,9,5.0,10.0,77,0.00,,,0.00,53.000000,,2013-03-21 15:22:00,
2013-03-21 08:32:00,57.0,50.0,29.88,North,9,5.0,10.0,77,0.00,,,0.00,53.000000,,2013-03-21 15:32:00,
2013-03-21 08:42:00,57.0,50.0,29.88,North,9,5.0,10.0,77,0.00,,,0.00,53.000000,,2013-03-21 15:42:00,
2013-03-21 08:52:00,57.0,50.0,29.88,North,9,5.0,10.0,77,0.00,,,0.00,53.000000,,2013-03-21 15:52:00,
2013-03-21 09:23:00,63.0,53.0,29.88,SW,224,2.0,9.0,69,0.00,,,0.00,212.000000,,2013-03-21 16:23:00,
2013-03-21 09:42:00,63.0,53.0,29.88,SW,224,2.0,9.0,69,0.00,,,0.00,212.000000,,2013-03-21 16:42:00,
2013-03-21 09:52:00,63.0,53.0,29.88,SW,224,2.0,9.0,69,0.00,,,0.00,212.000000,,2013-03-21 16:52:00,
2013-03-21 10:23:00,66.0,56.0,29.90,ESE,123,4.0,6.0,70,0.00,,,0.00,465.000000,,2013-03-21 17:23:00,
2013-03-21 10:32:00,66.0,56.0,29.90,ESE,123,4.0,6.0,70,0.00,,,0.00,465.000000,,2013-03-21 17:32:00,
2013-03-21 10:52:00,66.0,56.0,29.90,ESE,123,4.0,6.0,70,0.00,,,0.00,465.000000,,2013-03-21 17:52:00,
2013-03-21 11:22:00,67.0,56.0,29.90,ESE,111,5.0,7.0,67,0.00,,,0.00,690.000000,,2013-03-21 18:22:00,
2013-03-21 11:32:00,67.0,56.0,29.90,ESE,111,5.0,7.0,67,0.00,,,0.00,690.000000,,2013-03-21 18:32:00,
2013-03-21 11:42:00,67.0,56.0,29.90,ESE,111,5.0,7.0,67,0.00,,,0.00,690.000000,,2013-03-21 18:42:00,
2013-03-21 11:52:00,67.0,56.0,29.90,ESE,111,5.0,7.0,67,0.00,,,0.00,690.000000,,2013-03-21 18:52:00,
2013-03-21 12:22:00,65.0,54.0,29.91,South,180,4.0,8.0,67,0.00,,,0.00,812.000000,,2013-03-21 19:22:00,
2013-03-21 12:32:00,65.0,54.0,29.91,South,180,4.0,8.0,67,0.00,,,0.00,812.000000,,2013-03-21 19:32:00,
2013-03-21 12:42:00,65.0,54.0,29.91,South,180,4.0,8.0,67,0.00,,,0.00,812.000000,,2013-03-21 19:42:00,
2013-03-21 12:52:00,65.0,54.0,29.91,South,180,4.0,8.0,67,0.00,,,0.00,812.000000,,2013-03-21 19:52:00,
2013-03-21 13:22:00,67.0,56.0,29.88,SW,234,9.0,10.0,67,0.00,,,0.00,887.000000,,2013-03-21 20:22:00,
2013-03-21 13:33:00,67.0,56.0,29.88,SW,234,9.0,10.0,67,0.00,,,0.00,887.000000,,2013-03-21 20:33:00,
2013-03-21 13:42:00,67.0,56.0,29.88,SW,234,9.0,10.0,67,0.00,,,0.00,887.000000,,2013-03-21 20:42:00,
2013-03-21 13:52:00,67.0,56.0,29.88,SW,234,9.0,10.0,67,0.00,,,0.00,887.000000,,2013-03-21 20:52:00,
2013-03-21 14:22:00,68.0,52.0,29.85,WSW,254,11.0,20.0,57,0.00,,,0.00,939.000000,,2013-03-21 21:22:00,
2013-03-21 14:32:00,68.0,52.0,29.85,WSW,254,11.0,20.0,57,0.00,,,0.00,939.000000,,2013-03-21 21:32:00,
2013-03-21 14:43:00,68.0,52.0,29.85,WSW,254,11.0,20.0,57,0.00,,,0.00,939.000000,,2013-03-21 21:43:00,
2013-03-21 14:52:00,68.0,52.0,29.85,WSW,254,11.0,20.0,57,0.00,,,0.00,939.000000,,2013-03-21 21:52:00,
2013-03-21 15:23:00,66.0,54.0,29.81,WSW,246,14.0,24.0,65,0.00,,,0.00,887.000000,,2013-03-21 22:23:00,
2013-03-21 15:33:00,66.0,54.0,29.81,WSW,246,14.0,24.0,65,0.00,,,0.00,887.000000,,2013-03-21 22:33:00,
2013-03-21 15:42:00,66.0,54.0,29.81,WSW,246,14.0,24.0,65,0.00,,,0.00,887.000000,,2013-03-21 22:42:00,
2013-03-21 15:52:00,66.0,54.0,29.81,WSW,246,14.0,24.0,65,0.00,,,0.00,887.000000,,2013-03-21 22:52:00,
2013-03-21 16:22:00,64.0,50.0,29.79,West,268,18.0,30.0,61,0.00,,,0.00,757.000000,,2013-03-21 23:22:00,
2013-03-21 16:32:00,64.0,50.0,29.79,West,268,18.0,30.0,61,0.00,,,0.00,757.000000,,2013-03-21 23:32:00,
2013-03-21 16:42:00,64.0,50.0,29.79,West,268,18.0,30.0,61,0.00,,,0.00,757.000000,,2013-03-21 23:42:00,
2013-03-21 16:52:00,64.0,50.0,29.79,West,268,18.0,30.0,61,0.00,,,0.00,757.000000,,2013-03-21 23:52:00,
2013-03-21 17:22:00,61.0,50.0,29.80,West,269,17.0,29.0,68,0.00,,,0.00,570.000000,,2013-03-22 00:22:00,
2013-03-21 17:31:00,61.0,50.0,29.80,West,269,17.0,29.0,68,0.00,,,0.00,570.000000,,2013-03-22 00:31:00,
2013-03-21 17:42:00,61.0,50.0,29.80,West,269,17.0,29.0,68,0.00,,,0.00,570.000000,,2013-03-22 00:42:00,
2013-03-21 17:52:00,61.0,50.0,29.80,West,269,17.0,29.0,68,0.00,,,0.00,570.000000,,2013-03-22 00:52:00,
2013-03-21 18:22:00,62.0,52.0,29.78,West,274,15.0,27.0,69,0.00,,,0.00,347.000000,,2013-03-22 01:22:00,
2013-03-21 18:32:00,62.0,52.0,29.78,West,274,15.0,27.0,69,0.00,,,0.00,347.000000,,2013-03-22 01:32:00,
2013-03-21 18:42:00,62.0,52.0,29.78,West,274,15.0,27.0,69,0.00,,,0.00,347.000000,,2013-03-22 01:42:00,
2013-03-21 18:52:00,62.0,52.0,29.78,West,274,15.0,27.0,69,0.00,,,0.00,347.000000,,2013-03-22 01:52:00,
2013-03-21 19:22:00,59.0,50.0,29.78,West,265,10.0,27.0,72,0.00,,,0.00,113.000000,,2013-03-22 02:22:00,
2013-03-21 19:32:00,59.0,50.0,29.78,West,265,10.0,27.0,72,0.00,,,0.00,113.000000,,2013-03-22 02:32:00,
2013-03-21 19:42:00,59.0,50.0,29.78,West,265,10.0,27.0,72,0.00,,,0.00,113.000000,,2013-03-22 02:42:00,
2013-03-21 19:51:00,59.0,50.0,29.78,West,265,10.0,27.0,72,0.00,,,0.00,113.000000,,2013-03-22 02:51:00,
2013-03-21 20:22:00,56.0,52.0,29.78,West,275,9.0,21.0,87,0.00,,,0.00,3.000000,,2013-03-22 03:22:00,
2013-03-21 20:33:00,56.0,52.0,29.78,West,275,9.0,21.0,87,0.00,,,0.00,3.000000,,2013-03-22 03:33:00,
2013-03-21 20:42:00,56.0,52.0,29.78,West,275,9.0,21.0,87,0.00,,,0.00,3.000000,,2013-03-22 03:42:00,
2013-03-21 20:52:00,56.0,52.0,29.78,West,275,9.0,21.0,87,0.00,,,0.00,3.000000,,2013-03-22 03:52:00,
2013-03-21 21:23:00,54.0,50.0,29.80,NNE,17,2.0,16.0,85,0.00,,,0.00,0.000000,,2013-03-22 04:23:00,
2013-03-21 21:32:00,54.0,50.0,29.80,NNE,17,2.0,16.0,85,0.00,,,0.00,0.000000,,2013-03-22 04:32:00,
2013-03-21 21:42:00,54.0,50.0,29.80,NNE,17,2.0,16.0,85,0.00,,,0.00,0.000000,,2013-03-22 04:42:00,
2013-03-21 21:52:00,54.0,50.0,29.80,NNE,17,2.0,16.0,85,0.00,,,0.00,0.000000,,2013-03-22 04:52:00,
2013-03-21 22:22:00,52.0,49.0,29.81,NNE,15,7.0,7.0,88,0.00,,,0.00,0.000000,,2013-03-22 05:22:00,
2013-03-21 22:32:00,52.0,49.0,29.81,NNE,15,7.0,7.0,88,0.00,,,0.00,0.000000,,2013-03-22 05:32:00,
2013-03-21 22:42:00,52.0,49.0,29.81,NNE,15,7.0,7.0,88,0.00,,,0.00,0.000000,,2013-03-22 05:42:00,
2013-03-21 22:52:00,52.0,49.0,29.81,NNE,15,7.0,7.0,88,0.00,,,0.00,0.000000,,2013-03-22 05:52:00,
2013-03-21 23:22:00,53.0,51.0,29.81,NW,307,5.0,10.0,94,0.00,,,0.00,0.000000,,2013-03-22 06:22:00,
2013-03-21 23:32:00,53.0,51.0,29.81,NW,307,5.0,10.0,94,0.00,,,0.00,0.000000,,2013-03-22 06:32:00,
2013-03-21 23:42:00,53.0,51.0,29.81,NW,307,5.0,10.0,94,0.00,,,0.00,0.000000,,2013-03-22 06:42:00,
2013-03-21 23:52:00,53.0,51.0,29.81,NW,307,5.0,10.0,94,0.00,,,0.00,0.000000,,2013-03-22 06:52:00,